Anderson, Alaska
Current Conditions -  °F | °C
As of 5:53 AM on Friday 19 Dec 2014 (Local Time) from PANN Reporting Station
Clear Clear  
Wind Chill: -1°   Ceiling: Unl
Heat Index: 13°   Visibility: 10mi
Dew Point:   Wind: 12mph
Humidity: 77%   Direction: 40°NE
Pressure: 29.3"   Gusts: NA
Location:  64.34°N, 149.19°W
Report Text: PANN 191453Z AUTO 04010KT 10SM CLR M11/M14 A2930 RMK AO2 SLP935 T11061139 58021 TSNO
Loading
Personal Weather Stations






























Interactive Weather Map New forecast layout! Learn more

10-Day Weather Forecast

Advertisements
Track Severe Weather on mobile